Evans, Washington
Current Conditions -  °F | °C
As of 5:00 PM on Sunday 25 Jan 2015 (Local Time) from CYCG Reporting Station
Broken Clouds Broken Clouds  
Wind Chill: 34°   Ceiling: 21000
Heat Index: 37°   Visibility: 15mi
Dew Point: 36°   Wind: 5mph
Humidity: 93%   Direction: 120°ESE
Pressure: 30.23"   Gusts: NA
Location:  48.71°N, 118.03°W
Report Text: CYCG 260100Z 12004KT 090V180 15SM FEW025 SCT160 BKN210 03/02 A3023 RMK SC1AC2CI3 LAST OBS/NEXT 261400UTC SLP252
Loading
Personal Weather Stations






























Interactive Weather Map New forecast layout! Learn more

10-Day Weather Forecast

Advertisements
Track Severe Weather on mobile